Wetterdaten: aktuell Sonntag, 03.05.2026 00:10
Datum Zeit Arbeit-Z. Temp. A. Bod.+5cm Temp. A. min Temp. A. max Bl.Temp +1m BTemp -5cm BTemp -10cm BTemp -20cm BTemp -50cm Feuchte I. Feuchte A. BlattFeu +1m BFeucht -5cm BFeucht-10cm BFeucht-20cm BFeucht-50cm Luftdruck Regen Wind Richtung Richtung Sonnenschein ET UV Solar Taupunkt Windchill Windböen Empfang
03.05.2026 00:10 22,5 °C 16,6 °C 14,4 °C 16,2 °C 16,6 °C 16,1 °C 16,1 °C 16,1 °C 15,0 °C 13,3 °C 42 % 69 % 0 lf 200 cb 200 cb 124 cb 79 cb 1013,1 hPa 0,0 l/m² 0,3 km/h (0 Bft) S 174 ° 0 min 0,000 mm 0,0 UV-I 0 W/m² 10,9 °C 16,6 °C 1,6 km/h (1 Bft) 98,29 %
02.05.2026 23:10 22,5 °C 18,6 °C 16,1 °C 18,6 °C 18,6 °C 16,7 °C 16,7 °C 16,7 °C 15,0 °C 13,3 °C 42 % 63 % 0 lf 200 cb 200 cb 123 cb 79 cb 1012,8 hPa 0,0 l/m² 0,7 km/h (0 Bft) SW 232 ° 0 min 0,025 mm 0,0 UV-I 0 W/m² 11,4 °C 18,6 °C 4,8 km/h (1 Bft) 93,33 %
02.05.2026 22:10 22,6 °C 18,9 °C 16,7 °C 18,9 °C 19,1 °C 17,2 °C 17,2 °C 16,7 °C 15,0 °C 13,3 °C 42 % 64 % 0 lf 200 cb 200 cb 122 cb 79 cb 1013,0 hPa 0,0 l/m² 0,2 km/h (0 Bft) NW 304 ° 0 min 0,025 mm 0,0 UV-I 0 W/m² 11,9 °C 18,9 °C 1,6 km/h (1 Bft) 98,33 %
02.05.2026 21:10 22,8 °C 19,3 °C 17,8 °C 19,3 °C 19,6 °C 17,2 °C 17,2 °C 16,7 °C 15,0 °C 13,3 °C 42 % 69 % 0 lf 200 cb 200 cb 121 cb 78 cb 1012,8 hPa 0,0 l/m² 0,6 km/h (0 Bft) S-SO 165 ° 0 min 0,001 mm 0,0 UV-I 0 W/m² 13,5 °C 19,3 °C 1,6 km/h (1 Bft) 99,17 %
02.05.2026 20:10 23,3 °C 22,6 °C 21,1 °C 22,6 °C 23,1 °C 17,8 °C 17,8 °C 16,7 °C 15,0 °C 13,3 °C 40 % 59 % 0 lf 200 cb 200 cb 120 cb 78 cb 1012,5 hPa 0,0 l/m² 0,8 km/h (0 Bft) S-SW 198 ° 0 min 0,051 mm 0,0 UV-I 18 W/m² 14,2 °C 22,6 °C 3,2 km/h (1 Bft) 95,41 %
02.05.2026 19:10 24,1 °C 26,4 °C 26,1 °C 26,3 °C 26,4 °C 18,3 °C 18,3 °C 16,7 °C 14,4 °C 13,3 °C 39 % 42 % 0 lf 200 cb 200 cb 118 cb 78 cb 1012,5 hPa 0,0 l/m² 0,9 km/h (0 Bft) NW 315 ° 50 min 0,203 mm 0,0 UV-I 62 W/m² 12,4 °C 26,4 °C 3,2 km/h (1 Bft) 98,17 %
02.05.2026 18:10 23,9 °C 28,2 °C 28,3 °C 28,1 °C 28,3 °C 18,3 °C 18,3 °C 16,7 °C 14,4 °C 13,3 °C 39 % 36 % 0 lf 200 cb 200 cb 117 cb 78 cb 1013,1 hPa 0,0 l/m² 2,8 km/h (1 Bft) N 350 ° 60 min 0,305 mm 0,9 UV-I 332 W/m² 11,7 °C 28,2 °C 8,0 km/h (2 Bft) 95,73 %
02.05.2026 17:10 23,6 °C 28,5 °C 36,7 °C 28,5 °C 28,8 °C 18,9 °C 18,9 °C 16,1 °C 14,4 °C 13,3 °C 39 % 35 % 0 lf 200 cb 200 cb 117 cb 78 cb 1013,6 hPa 0,0 l/m² 2,0 km/h (1 Bft) NW 325 ° 60 min 0,406 mm 1,7 UV-I 482 W/m² 11,5 °C 28,5 °C 4,8 km/h (1 Bft) 94,21 %
02.05.2026 16:10 23,6 °C 27,9 °C 37,2 °C 27,9 °C 28,6 °C 19,4 °C 19,4 °C 16,1 °C 13,9 °C 13,3 °C 37 % 33 % 0 lf 200 cb 200 cb 114 cb 77 cb 1014,6 hPa 0,0 l/m² 2,7 km/h (1 Bft) N 5 ° 60 min 0,508 mm 2,7 UV-I 612 W/m² 10,1 °C 27,9 °C 6,4 km/h (2 Bft) 96,67 %
02.05.2026 15:10 22,7 °C 27,4 °C 28,9 °C 27,3 °C 27,7 °C 20,0 °C 20,0 °C 15,6 °C 13,9 °C 13,3 °C 39 % 36 % 0 lf 200 cb 200 cb 114 cb 77 cb 1015,5 hPa 0,0 l/m² 4,2 km/h (1 Bft) N-NW 331 ° 60 min 0,533 mm 3,6 UV-I 712 W/m² 11,0 °C 27,4 °C 9,7 km/h (2 Bft) 99,17 %
02.05.2026 14:10 22,3 °C 26,6 °C 26,7 °C 26,6 °C 26,8 °C 21,1 °C 21,1 °C 15,0 °C 13,9 °C 13,3 °C 39 % 37 % 0 lf 200 cb 200 cb 114 cb 77 cb 1016,3 hPa 0,0 l/m² 4,4 km/h (1 Bft) NW 315 ° 60 min 0,534 mm 4,1 UV-I 768 W/m² 10,7 °C 26,6 °C 9,7 km/h (2 Bft) 96,67 %
02.05.2026 13:10 21,9 °C 25,7 °C 30,6 °C 25,2 °C 25,7 °C 20,0 °C 20,0 °C 13,9 °C 13,3 °C 13,3 °C 39 % 37 % 0 lf 200 cb 200 cb 113 cb 76 cb 1017,2 hPa 0,0 l/m² 6,0 km/h (2 Bft) N-NW 330 ° 60 min 0,482 mm 4,1 UV-I 745 W/m² 9,9 °C 25,7 °C 12,9 km/h (3 Bft) 94,93 %
02.05.2026 12:10 21,7 °C 24,0 °C 24,4 °C 23,7 °C 24,0 °C 18,3 °C 18,3 °C 13,9 °C 13,3 °C 13,3 °C 40 % 42 % 0 lf 200 cb 200 cb 114 cb 76 cb 1018,3 hPa 0,0 l/m² 3,5 km/h (1 Bft) N 5 ° 60 min 0,432 mm 3,1 UV-I 559 W/m² 10,3 °C 24,0 °C 8,0 km/h (2 Bft) 96,58 %
02.05.2026 11:10 21,5 °C 22,3 °C 22,2 °C 22,2 °C 22,4 °C 16,1 °C 16,1 °C 13,3 °C 13,3 °C 13,3 °C 39 % 40 % 0 lf 200 cb 200 cb 114 cb 75 cb 1018,8 hPa 0,0 l/m² 2,4 km/h (1 Bft) S-SW 202 ° 60 min 0,330 mm 3,0 UV-I 657 W/m² 8,0 °C 22,3 °C 6,4 km/h (2 Bft) 93,22 %
02.05.2026 10:10 21,5 °C 19,8 °C 20,0 °C 19,7 °C 19,8 °C 13,9 °C 13,9 °C 13,3 °C 13,3 °C 13,3 °C 40 % 44 % 0 lf 200 cb 200 cb 112 cb 75 cb 1019,2 hPa 0,0 l/m² 1,0 km/h (0 Bft) SO 130 ° 60 min 0,254 mm 2,0 UV-I 520 W/m² 7,2 °C 19,8 °C 3,2 km/h (1 Bft) 97,48 %
02.05.2026 09:10 21,3 °C 16,4 °C 16,1 °C 16,2 °C 16,4 °C 12,2 °C 12,2 °C 13,3 °C 13,9 °C 13,3 °C 39 % 56 % 0 lf 200 cb 200 cb 109 cb 75 cb 1019,6 hPa 0,0 l/m² 2,7 km/h (1 Bft) S-SO 167 ° 45 min 0,102 mm 1,2 UV-I 373 W/m² 7,6 °C 16,4 °C 6,4 km/h (2 Bft) 97,48 %
02.05.2026 08:10 21,3 °C 13,9 °C 12,8 °C 13,8 °C 13,9 °C 12,2 °C 12,2 °C 13,9 °C 13,9 °C 13,3 °C 39 % 58 % 0 lf 200 cb 200 cb 109 cb 74 cb 1019,7 hPa 0,0 l/m² 2,9 km/h (1 Bft) O-NO 65 ° 15 min 0,076 mm 0,5 UV-I 195 W/m² 5,8 °C 13,9 °C 6,4 km/h (2 Bft) 96,67 %
02.05.2026 07:10 21,4 °C 12,8 °C 11,7 °C 12,7 °C 12,8 °C 12,2 °C 12,2 °C 13,9 °C 13,9 °C 13,3 °C 40 % 58 % 0 lf 200 cb 200 cb 108 cb 74 cb 1019,4 hPa 0,0 l/m² 1,4 km/h (1 Bft) O 81 ° 0 min 0,026 mm 0,0 UV-I 104 W/m² 4,7 °C 12,8 °C 4,8 km/h (1 Bft) 93,75 %
02.05.2026 06:10 21,4 °C 12,9 °C 11,7 °C 12,9 °C 13,2 °C 12,2 °C 12,2 °C 13,9 °C 13,9 °C 13,3 °C 40 % 56 % 0 lf 200 cb 200 cb 107 cb 74 cb 1019,3 hPa 0,0 l/m² 3,3 km/h (1 Bft) SO 146 ° 0 min 0,025 mm 0,0 UV-I 11 W/m² 4,3 °C 12,9 °C 9,7 km/h (2 Bft) 96,67 %
02.05.2026 05:10 21,4 °C 13,9 °C 12,2 °C 13,9 °C 13,9 °C 12,2 °C 12,2 °C 13,9 °C 13,9 °C 13,3 °C 40 % 53 % 0 lf 200 cb 200 cb 106 cb 73 cb 1019,1 hPa 0,0 l/m² 4,4 km/h (1 Bft) S-SO 163 ° 0 min 0,076 mm 0,0 UV-I 0 W/m² 4,5 °C 13,9 °C 11,3 km/h (2 Bft) 94,07 %
02.05.2026 04:10 21,4 °C 15,0 °C 13,3 °C 14,9 °C 15,1 °C 12,8 °C 12,8 °C 14,4 °C 13,9 °C 13,3 °C 39 % 49 % 0 lf 200 cb 200 cb 105 cb 73 cb 1019,5 hPa 0,0 l/m² 4,1 km/h (1 Bft) S-SO 168 ° 0 min 0,076 mm 0,0 UV-I 0 W/m² 4,4 °C 15,0 °C 11,3 km/h (2 Bft) 97,54 %
02.05.2026 03:10 21,4 °C 15,7 °C 14,4 °C 15,7 °C 15,8 °C 12,8 °C 12,8 °C 14,4 °C 13,9 °C 13,3 °C 39 % 48 % 0 lf 200 cb 200 cb 105 cb 73 cb 1019,5 hPa 0,0 l/m² 8,4 km/h (2 Bft) SW 216 ° 0 min 0,077 mm 0,0 UV-I 0 W/m² 4,7 °C 14,6 °C 16,1 km/h (3 Bft) 92,31 %
02.05.2026 02:10 21,4 °C 16,6 °C 15,0 °C 16,5 °C 16,6 °C 13,3 °C 13,3 °C 14,4 °C 13,9 °C 13,3 °C 39 % 45 % 0 lf 200 cb 200 cb 104 cb 73 cb 1019,8 hPa 0,0 l/m² 7,4 km/h (2 Bft) S-SW 198 ° 0 min 0,076 mm 0,0 UV-I 0 W/m² 4,6 °C 16,1 °C 20,9 km/h (4 Bft) 95,76 %
02.05.2026 01:10 21,3 °C 17,3 °C 15,6 °C 17,2 °C 17,3 °C 13,3 °C 13,3 °C 15,0 °C 14,4 °C 13,3 °C 39 % 44 % 0 lf 200 cb 200 cb 105 cb 72 cb 1020,0 hPa 0,0 l/m² 6,7 km/h (2 Bft) SO 139 ° 0 min 0,076 mm 0,0 UV-I 0 W/m² 4,9 °C 17,2 °C 14,5 km/h (3 Bft) 95,83 %
02.05.2026 01:00 21,3 °C 17,3 °C 15,6 °C 17,1 °C 17,3 °C 13,3 °C 13,3 °C 15,0 °C 14,4 °C 13,3 °C 39 % 44 % 0 lf 200 cb 200 cb 105 cb 72 cb 1020,0 hPa 0,0 l/m² 6,2 km/h (2 Bft) S 186 ° 0 min 0,076 mm 0,0 UV-I 0 W/m² 4,9 °C 17,3 °C 14,5 km/h (3 Bft) 97,50 %
_ Min-Zeit 08:35 06:40 06:40 06:40 06:40 04:55 04:55 08:25 10:10 01:00 16:10 16:10 01:00 01:00 01:00 02:05 01:00 19:25 - 21:50 - - - - - - 06:10 06:40 06:40 10:45
Minimum _ 21,2 °C 12,1 °C 10,6 °C 12,1 °C 12,2 °C 12,2 °C 12,2 °C 13,3 °C 13,3 °C 13,3 °C 37 % 33 % 0 lf 200 cb 200 cb 104 cb 72 cb 1012,4 hPa - 0,0 km/h (0 Bft) - - - - - - 4,3 °C 12,1 °C 1,6 km/h (1 Bft) 88,60 %
_ Max-Zeit 18:30 17:05 15:40 17:10 17:05 14:00 14:00 17:35 19:25 01:00 20:55 23:55 01:00 01:00 01:00 23:30 21:25 01:00 01:00 04:30 - - 08:00 14:00 13:25 12:50 20:00 17:05 01:40 02:20
Maximum _ 24,3 °C 28,8 °C 37,8 °C 28,5 °C 28,8 °C 21,7 °C 21,7 °C 16,7 °C 15,0 °C 13,3 °C 42 % 71 % 0 lf 200 cb 200 cb 124 cb 79 cb 1020,0 hPa 0,0 l/m² 9,0 km/h
SO (2 Bft)
- - 5 min 0,534 mm 4,4 UV-I 810 W/m² 14,4 °C 28,8 °C 22,5 km/h
S-SO (4 Bft)
100,00 %
Durchschnitt _ 22,2 °C 20,3 °C 20,4 °C 20,2 °C 20,4 °C 15,9 °C 15,9 °C 15,0 °C 14,1 °C 13,3 °C 40 % 48 % 0 lf 200 cb 200 cb 113 cb 76 cb 1016,8 hPa #0,0 l/m² 3,2 km/h (1 Bft) SO - #0 min. #0,000 mm 0,0 UV-I 0 W/m² 8,7 °C 20,3 °C 8,3 km/h (2 Bft) 95,95 %
copy; 2009 Dieter Kraft